createdAt,value
2018-08-03T00:01:54.273Z,27.50
2018-08-03T00:04:21.746Z,27.50
2018-08-03T00:06:49.082Z,27.40
2018-08-03T00:09:16.474Z,27.30
2018-08-03T00:11:43.947Z,27.40
2018-08-03T00:14:11.382Z,27.30
2018-08-03T00:16:38.726Z,27.40
2018-08-03T00:19:06.148Z,27.30
2018-08-03T00:21:33.603Z,27.30
2018-08-03T00:24:01.065Z,27.30
2018-08-03T00:26:28.499Z,27.30
2018-08-03T00:28:55.950Z,27.30
2018-08-03T00:31:23.409Z,27.30
2018-08-03T00:33:50.909Z,27.30
2018-08-03T00:36:18.271Z,27.30
2018-08-03T00:38:45.978Z,27.20
2018-08-03T00:41:13.391Z,27.20
2018-08-03T00:43:40.814Z,27.20
2018-08-03T00:46:08.232Z,27.10
2018-08-03T00:48:35.750Z,27.20
2018-08-03T00:51:03.161Z,27.10
2018-08-03T00:53:30.666Z,27.10
2018-08-03T00:55:58.201Z,27.10
2018-08-03T00:58:25.549Z,27.10
2018-08-03T01:00:52.976Z,27.10
2018-08-03T01:03:20.456Z,27.10
2018-08-03T01:05:47.843Z,27.00
2018-08-03T01:08:15.239Z,26.90
2018-08-03T01:10:42.678Z,26.90
2018-08-03T01:13:10.190Z,27.00
2018-08-03T01:15:37.623Z,27.10
2018-08-03T01:18:05.136Z,27.00
2018-08-03T01:20:32.497Z,27.00
2018-08-03T01:22:59.991Z,27.00
2018-08-03T01:25:27.535Z,27.00
2018-08-03T01:27:54.933Z,27.10
2018-08-03T01:30:22.431Z,27.00
2018-08-03T01:32:49.941Z,27.00
2018-08-03T01:35:17.436Z,26.90
2018-08-03T01:37:44.903Z,27.00
2018-08-03T01:40:12.391Z,26.90
2018-08-03T01:42:39.941Z,26.90
2018-08-03T01:45:07.409Z,26.90
2018-08-03T01:47:34.807Z,26.80
2018-08-03T01:50:02.325Z,26.70
2018-08-03T01:52:29.748Z,26.70
2018-08-03T01:54:57.250Z,26.70
2018-08-03T01:57:24.786Z,26.60
2018-08-03T01:59:52.192Z,26.50
2018-08-03T02:02:19.532Z,26.50
2018-08-03T02:04:46.992Z,26.60
2018-08-03T02:07:14.397Z,26.50
2018-08-03T02:09:41.850Z,26.50
2018-08-03T02:12:09.293Z,26.40
2018-08-03T02:14:36.693Z,26.40
2018-08-03T02:17:04.104Z,26.40
2018-08-03T02:19:31.559Z,26.40
2018-08-03T02:21:58.992Z,26.40
2018-08-03T02:24:26.484Z,26.40
2018-08-03T02:26:53.939Z,26.40
2018-08-03T02:29:21.335Z,26.40
2018-08-03T02:31:48.746Z,26.30
2018-08-03T02:34:16.223Z,26.30
2018-08-03T02:36:43.659Z,26.40
2018-08-03T02:39:11.860Z,26.30
2018-08-03T02:41:39.472Z,26.20
2018-08-03T02:44:07.398Z,26.20
2018-08-03T02:46:34.869Z,26.30
2018-08-03T02:49:02.373Z,26.30
2018-08-03T02:51:29.843Z,26.20
2018-08-03T02:53:57.247Z,26.20
2018-08-03T02:56:24.647Z,26.30
2018-08-03T02:58:52.046Z,26.30
2018-08-03T03:01:19.612Z,26.30
2018-08-03T03:03:47.092Z,26.20
2018-08-03T03:06:14.468Z,26.10
2018-08-03T03:08:41.899Z,26.10
2018-08-03T03:11:09.379Z,26.10
2018-08-03T03:13:36.792Z,26.20
2018-08-03T03:16:04.189Z,26.20
2018-08-03T03:18:31.579Z,26.20
2018-08-03T03:20:58.965Z,26.20
2018-08-03T03:23:26.329Z,26.20
2018-08-03T03:25:53.729Z,26.10
2018-08-03T03:28:21.172Z,26.10
2018-08-03T03:30:48.597Z,26.10
2018-08-03T03:33:16.094Z,26.10
2018-08-03T03:35:43.535Z,26.10
2018-08-03T03:38:10.937Z,26.10
2018-08-03T03:40:38.346Z,26.10
2018-08-03T03:43:05.893Z,26.10
2018-08-03T03:45:33.447Z,26.00
2018-08-03T03:48:00.923Z,26.00
2018-08-03T03:50:28.364Z,25.90
2018-08-03T03:52:55.801Z,25.90
2018-08-03T03:55:23.230Z,25.90
2018-08-03T03:57:50.693Z,26.00
2018-08-03T04:00:18.203Z,26.00
2018-08-03T04:02:45.743Z,26.00
2018-08-03T04:05:13.185Z,25.90
2018-08-03T04:07:41.103Z,26.00
2018-08-03T04:10:08.487Z,25.90
2018-08-03T04:12:35.896Z,25.80
2018-08-03T04:15:03.761Z,25.80
2018-08-03T04:17:31.189Z,25.80
2018-08-03T04:19:58.694Z,25.80
2018-08-03T04:22:26.212Z,25.80
2018-08-03T04:24:53.703Z,25.80
2018-08-03T04:27:21.265Z,25.90
2018-08-03T04:29:48.700Z,25.90
2018-08-03T04:32:16.259Z,26.00
2018-08-03T04:34:43.724Z,26.00
2018-08-03T04:37:11.140Z,26.00
2018-08-03T04:39:38.546Z,25.90
2018-08-03T04:42:06.105Z,25.90
2018-08-03T04:44:33.511Z,25.90
2018-08-03T04:47:00.915Z,25.90
2018-08-03T04:49:28.386Z,25.90
2018-08-03T04:51:55.860Z,25.90
2018-08-03T04:54:23.263Z,26.00
2018-08-03T04:56:50.670Z,25.90
2018-08-03T04:59:18.102Z,25.90
2018-08-03T05:01:45.569Z,26.00
2018-08-03T05:04:13.039Z,26.00
2018-08-03T05:06:40.487Z,26.10
2018-08-03T05:09:08.198Z,26.10
2018-08-03T05:11:35.808Z,26.10
2018-08-03T05:14:03.413Z,26.00
2018-08-03T05:16:30.911Z,26.00
2018-08-03T05:18:58.353Z,26.00
2018-08-03T05:21:25.812Z,26.10
2018-08-03T05:23:57.521Z,26.20
2018-08-03T05:26:25.101Z,26.20
2018-08-03T05:28:52.643Z,26.20
2018-08-03T05:31:20.018Z,26.20
2018-08-03T05:33:47.582Z,26.20
2018-08-03T05:36:15.044Z,26.20
2018-08-03T05:38:42.502Z,26.30
2018-08-03T05:41:09.972Z,26.30
2018-08-03T05:43:37.472Z,26.40
2018-08-03T05:46:05.219Z,26.40
2018-08-03T05:48:32.652Z,26.40
2018-08-03T05:51:00.110Z,26.30
2018-08-03T05:53:27.594Z,26.40
2018-08-03T05:55:55.051Z,26.50
2018-08-03T05:58:22.490Z,26.50
2018-08-03T06:00:49.998Z,26.50
2018-08-03T06:03:17.427Z,26.50
2018-08-03T06:05:44.858Z,26.60
2018-08-03T06:08:12.299Z,26.60
2018-08-03T06:10:39.697Z,26.60
2018-08-03T06:13:07.134Z,26.60
2018-08-03T06:15:34.500Z,26.70
2018-08-03T06:18:01.991Z,26.70
2018-08-03T06:20:29.436Z,26.80
2018-08-03T06:22:56.826Z,26.80
2018-08-03T06:25:24.222Z,26.90
2018-08-03T06:27:52.320Z,26.90
2018-08-03T06:30:19.973Z,27.00
2018-08-03T06:32:47.379Z,27.00
2018-08-03T06:35:14.876Z,27.10
2018-08-03T06:37:42.423Z,27.10
2018-08-03T06:40:09.773Z,27.20
2018-08-03T06:42:37.175Z,27.20
2018-08-03T06:45:04.656Z,27.30
2018-08-03T06:47:32.130Z,27.30
2018-08-03T06:49:59.829Z,27.30
2018-08-03T06:52:27.225Z,27.40
2018-08-03T06:54:54.647Z,27.50
2018-08-03T06:57:22.065Z,27.50
2018-08-03T06:59:49.454Z,27.60
2018-08-03T07:02:16.891Z,27.60
2018-08-03T07:04:44.371Z,27.70
2018-08-03T07:07:11.808Z,27.70
2018-08-03T07:09:39.380Z,27.70
2018-08-03T07:12:06.680Z,27.80
2018-08-03T07:14:34.262Z,27.90
2018-08-03T07:17:01.724Z,27.90
2018-08-03T07:19:29.336Z,27.90
2018-08-03T07:21:56.733Z,28.00
2018-08-03T07:24:24.118Z,28.10
2018-08-03T07:26:51.773Z,28.10
2018-08-03T07:29:19.190Z,28.10
2018-08-03T07:31:46.787Z,28.20
2018-08-03T07:34:14.301Z,28.20
2018-08-03T07:36:41.649Z,28.30
2018-08-03T07:39:09.229Z,28.40
2018-08-03T07:41:36.685Z,28.40
2018-08-03T07:44:04.329Z,28.50
2018-08-03T07:46:31.858Z,28.50
2018-08-03T07:48:59.255Z,28.50
2018-08-03T07:51:26.732Z,28.50
2018-08-03T07:53:54.235Z,28.60
2018-08-03T07:56:21.702Z,28.70
2018-08-03T07:58:49.198Z,28.80
2018-08-03T08:01:17.077Z,28.80
2018-08-03T08:03:44.523Z,28.90
2018-08-03T08:06:11.970Z,28.90
2018-08-03T08:08:39.380Z,29.00
2018-08-03T08:11:06.861Z,29.10
2018-08-03T08:13:34.468Z,29.10
2018-08-03T08:16:01.927Z,29.20
2018-08-03T08:18:30.510Z,29.20
2018-08-03T08:20:58.263Z,29.20
2018-08-03T08:23:25.825Z,29.20
2018-08-03T08:25:53.382Z,29.30
2018-08-03T08:28:20.856Z,29.40
2018-08-03T08:30:48.326Z,29.40
2018-08-03T08:33:15.820Z,29.50
2018-08-03T08:35:43.152Z,29.50
2018-08-03T08:38:11.022Z,29.60
2018-08-03T08:40:38.791Z,29.70
2018-08-03T08:43:06.270Z,29.70
2018-08-03T08:45:33.672Z,29.80
2018-08-03T08:48:01.212Z,29.90
2018-08-03T08:50:28.704Z,29.90
2018-08-03T08:52:56.324Z,30.00
2018-08-03T08:55:23.766Z,30.10
2018-08-03T08:57:51.135Z,30.20
2018-08-03T09:00:18.721Z,30.20
2018-08-03T09:02:46.294Z,30.30
2018-08-03T09:05:13.844Z,30.30
2018-08-03T09:07:41.406Z,30.40
2018-08-03T09:10:09.173Z,30.40
2018-08-03T09:12:37.746Z,30.50
2018-08-03T09:15:05.732Z,30.50
2018-08-03T09:17:33.271Z,30.60
2018-08-03T09:20:00.750Z,30.70
2018-08-03T09:22:28.223Z,30.70
2018-08-03T09:24:55.686Z,30.80
2018-08-03T09:27:23.138Z,30.90
2018-08-03T09:29:50.614Z,30.90
2018-08-03T09:32:18.145Z,31.00
2018-08-03T09:34:45.541Z,31.20
2018-08-03T09:37:13.036Z,31.20
2018-08-03T09:39:40.614Z,31.30
2018-08-03T09:42:08.085Z,31.40
2018-08-03T09:44:35.637Z,31.50
2018-08-03T09:47:03.099Z,31.60
2018-08-03T09:49:30.627Z,31.70
2018-08-03T09:51:58.066Z,31.80
2018-08-03T09:54:25.724Z,32.00
2018-08-03T09:56:53.171Z,32.20
2018-08-03T09:59:20.589Z,32.40
2018-08-03T10:01:48.141Z,32.70
2018-08-03T10:04:15.525Z,32.90
2018-08-03T10:06:42.987Z,33.30
2018-08-03T10:09:10.407Z,33.40
2018-08-03T10:11:37.879Z,33.50
2018-08-03T10:14:05.323Z,33.70
2018-08-03T10:16:32.792Z,33.90
2018-08-03T10:19:00.325Z,34.20
2018-08-03T10:21:27.764Z,34.30
2018-08-03T10:23:55.343Z,34.40
2018-08-03T10:26:22.949Z,34.50
2018-08-03T10:28:50.666Z,34.60
2018-08-03T10:31:18.135Z,34.60
2018-08-03T10:33:46.191Z,34.80
2018-08-03T10:36:13.128Z,34.90
2018-08-03T10:38:40.584Z,35.00
2018-08-03T10:41:08.105Z,35.10
2018-08-03T10:43:35.541Z,35.30
2018-08-03T10:46:03.004Z,35.30
2018-08-03T10:48:30.430Z,35.50
2018-08-03T10:50:57.987Z,35.50
2018-08-03T10:53:25.407Z,35.70
2018-08-03T10:55:52.877Z,35.70
2018-08-03T10:58:20.332Z,35.80
2018-08-03T11:00:47.843Z,36.00
2018-08-03T11:03:15.190Z,36.20
2018-08-03T11:05:42.668Z,36.30
2018-08-03T11:08:10.114Z,36.30
2018-08-03T11:10:37.612Z,36.50
2018-08-03T11:13:05.450Z,36.60
2018-08-03T11:15:32.927Z,36.80
2018-08-03T11:18:00.346Z,36.70
2018-08-03T11:20:27.836Z,36.80
2018-08-03T11:22:55.252Z,37.10
2018-08-03T11:25:22.661Z,37.30
2018-08-03T11:27:50.137Z,37.40
2018-08-03T11:30:17.480Z,37.50
2018-08-03T11:32:44.935Z,37.50
2018-08-03T11:35:12.547Z,37.60
2018-08-03T11:37:39.994Z,37.60
2018-08-03T11:40:08.131Z,37.60
2018-08-03T11:42:35.764Z,37.60
2018-08-03T11:45:03.775Z,37.60
2018-08-03T11:47:31.261Z,37.50
2018-08-03T11:49:58.776Z,37.30
2018-08-03T11:52:26.355Z,37.30
2018-08-03T11:54:53.932Z,37.40
2018-08-03T11:57:21.359Z,37.50
2018-08-03T11:59:48.775Z,37.40
2018-08-03T12:02:16.278Z,37.60
2018-08-03T12:04:43.731Z,37.70
2018-08-03T12:07:11.311Z,37.70
2018-08-03T12:09:38.785Z,37.70
2018-08-03T12:12:06.544Z,37.80
2018-08-03T12:14:33.931Z,37.90
2018-08-03T12:17:01.339Z,38.00
2018-08-03T12:19:28.749Z,38.00
2018-08-03T12:21:56.506Z,37.90
2018-08-03T12:24:24.053Z,37.90
2018-08-03T12:26:51.679Z,38.00
2018-08-03T12:29:19.128Z,38.10
2018-08-03T12:31:47.068Z,38.10
2018-08-03T12:34:14.652Z,38.20
2018-08-03T12:36:42.151Z,38.30
2018-08-03T12:39:10.290Z,38.30
2018-08-03T12:41:37.973Z,38.40
2018-08-03T12:44:05.577Z,38.50
2018-08-03T12:46:33.059Z,38.50
2018-08-03T12:49:00.470Z,38.60
2018-08-03T12:51:28.027Z,38.50
2018-08-03T12:53:55.558Z,38.60
2018-08-03T12:56:23.362Z,38.70
2018-08-03T12:58:50.984Z,38.80
2018-08-03T13:01:18.729Z,38.80
2018-08-03T13:03:46.075Z,38.80
2018-08-03T13:06:13.468Z,38.90
2018-08-03T13:08:41.118Z,39.00
2018-08-03T13:11:08.541Z,39.10
2018-08-03T13:13:35.993Z,39.10
2018-08-03T13:16:03.601Z,39.20
2018-08-03T13:18:31.060Z,39.30
2018-08-03T13:20:58.517Z,39.30
2018-08-03T13:23:25.908Z,39.40
2018-08-03T13:25:53.295Z,39.50
2018-08-03T13:28:20.793Z,39.50
2018-08-03T13:30:48.209Z,39.50
2018-08-03T13:33:15.689Z,39.60
2018-08-03T13:35:42.993Z,39.70
2018-08-03T13:38:10.494Z,39.70
2018-08-03T13:40:37.986Z,39.80
2018-08-03T13:43:05.343Z,39.60
2018-08-03T13:45:32.763Z,39.30
2018-08-03T13:48:00.519Z,39.20
2018-08-03T13:50:28.006Z,39.20
2018-08-03T13:52:55.479Z,39.40
2018-08-03T13:55:22.916Z,39.60
2018-08-03T13:57:50.306Z,39.70
2018-08-03T14:00:17.706Z,39.80
2018-08-03T14:02:45.184Z,40.00
2018-08-03T14:05:12.714Z,40.00
2018-08-03T14:07:40.259Z,40.00
2018-08-03T14:10:08.371Z,40.10
2018-08-03T14:12:35.882Z,40.10
2018-08-03T14:15:03.548Z,40.30
2018-08-03T14:17:31.030Z,40.30
2018-08-03T14:19:58.529Z,40.30
2018-08-03T14:22:25.916Z,40.40
2018-08-03T14:24:53.345Z,40.40
2018-08-03T14:27:20.741Z,40.50
2018-08-03T14:29:48.237Z,40.40
2018-08-03T14:32:15.773Z,40.40
2018-08-03T14:34:43.169Z,40.50
2018-08-03T14:37:10.634Z,40.50
2018-08-03T14:39:38.082Z,40.60
2018-08-03T14:42:05.835Z,40.60
2018-08-03T14:44:33.342Z,40.70
2018-08-03T14:47:00.742Z,40.80
2018-08-03T14:49:28.272Z,40.80
2018-08-03T14:51:55.649Z,40.80
2018-08-03T14:54:23.088Z,40.80
2018-08-03T14:56:50.590Z,40.90
2018-08-03T14:59:18.029Z,40.90
2018-08-03T15:01:45.752Z,40.90
2018-08-03T15:04:13.212Z,40.90
2018-08-03T15:06:40.707Z,40.80
2018-08-03T15:09:09.510Z,40.80
2018-08-03T15:11:36.939Z,40.70
2018-08-03T15:14:04.417Z,40.70
2018-08-03T15:16:31.766Z,40.70
2018-08-03T15:18:59.296Z,40.80
2018-08-03T15:21:26.907Z,40.80
2018-08-03T15:23:54.301Z,40.90
2018-08-03T15:26:21.680Z,41.00
2018-08-03T15:28:49.229Z,41.00
2018-08-03T15:31:16.680Z,41.00
2018-08-03T15:33:44.058Z,40.50
2018-08-03T15:36:11.435Z,40.00
2018-08-03T15:38:38.814Z,39.70
2018-08-03T15:41:06.551Z,39.40
2018-08-03T15:43:34.392Z,39.20
2018-08-03T15:46:01.939Z,39.00
2018-08-03T15:48:29.342Z,38.80
2018-08-03T15:50:56.818Z,38.60
2018-08-03T15:53:24.166Z,38.50
2018-08-03T15:55:51.563Z,38.50
2018-08-03T15:58:19.044Z,38.40
2018-08-03T16:00:46.435Z,38.30
2018-08-03T16:05:54.484Z,38.20
2018-08-03T16:08:22.488Z,38.10
2018-08-03T16:10:49.921Z,38.10
2018-08-03T16:13:17.407Z,38.10
2018-08-03T16:15:46.692Z,38.00
2018-08-03T16:18:14.141Z,37.90
2018-08-03T16:20:41.739Z,37.60
2018-08-03T16:23:09.247Z,37.50
2018-08-03T16:25:36.750Z,37.40
2018-08-03T16:28:06.146Z,37.20
2018-08-03T16:30:33.736Z,37.10
2018-08-03T16:33:01.346Z,37.10
2018-08-03T16:35:28.706Z,36.90
2018-08-03T16:37:56.152Z,36.90
2018-08-03T16:40:23.692Z,36.80
2018-08-03T16:42:51.206Z,36.80
2018-08-03T16:45:18.749Z,36.70
2018-08-03T16:47:46.119Z,36.70
2018-08-03T16:50:13.545Z,36.50
2018-08-03T16:52:40.950Z,36.40
2018-08-03T16:55:08.357Z,36.30
2018-08-03T16:57:35.876Z,36.10
2018-08-03T17:00:07.765Z,36.00
2018-08-03T17:02:35.452Z,35.90
2018-08-03T17:05:18.535Z,35.90
2018-08-03T17:07:46.444Z,35.80
2018-08-03T17:10:13.888Z,35.70
2018-08-03T17:12:41.359Z,35.60
2018-08-03T17:15:08.830Z,35.50
2018-08-03T17:17:36.255Z,35.50
2018-08-03T17:20:03.939Z,35.40
2018-08-03T17:22:31.383Z,35.30
2018-08-03T17:24:58.814Z,35.20
2018-08-03T17:27:26.219Z,35.10
2018-08-03T17:29:53.730Z,35.10
2018-08-03T17:32:22.168Z,34.80
2018-08-03T17:34:49.693Z,34.80
2018-08-03T17:37:17.236Z,34.60
2018-08-03T17:39:45.996Z,34.60
2018-08-03T17:42:14.155Z,34.50
2018-08-03T17:44:42.825Z,34.40
2018-08-03T17:47:23.299Z,34.20
2018-08-03T17:49:50.743Z,34.20
2018-08-03T17:52:18.199Z,34.10
2018-08-03T17:54:45.608Z,33.90
2018-08-03T17:57:13.101Z,33.80
2018-08-03T17:59:40.502Z,33.70
2018-08-03T18:02:07.839Z,33.60
2018-08-03T18:04:35.363Z,33.50
2018-08-03T18:07:02.930Z,33.50
2018-08-03T18:09:30.499Z,33.50
2018-08-03T18:11:57.976Z,33.40
2018-08-03T18:14:25.436Z,33.30
2018-08-03T18:16:53.032Z,33.30
2018-08-03T18:19:26.025Z,33.20
2018-08-03T18:21:55.401Z,33.20
2018-08-03T18:24:22.902Z,33.20
2018-08-03T18:26:50.376Z,33.10
2018-08-03T18:29:37.248Z,33.00
2018-08-03T18:32:06.761Z,33.00
2018-08-03T18:34:34.474Z,33.10
2018-08-03T18:37:02.355Z,33.00
2018-08-03T18:39:30.132Z,33.00
2018-08-03T18:41:57.555Z,32.90
2018-08-03T18:44:24.930Z,32.90
2018-08-03T18:46:52.402Z,32.90
2018-08-03T18:49:20.001Z,33.00
2018-08-03T18:51:47.447Z,33.00
2018-08-03T18:54:15.665Z,33.00
2018-08-03T18:56:43.079Z,33.00
2018-08-03T18:59:10.564Z,33.00
2018-08-03T19:01:38.040Z,33.00
2018-08-03T19:04:05.446Z,32.90
2018-08-03T19:06:32.923Z,33.00
2018-08-03T19:09:00.323Z,33.00
2018-08-03T19:11:27.791Z,33.00
2018-08-03T19:13:55.360Z,33.00
2018-08-03T19:16:22.792Z,33.00
2018-08-03T19:18:50.629Z,32.90
2018-08-03T19:21:18.180Z,32.90
2018-08-03T19:23:46.060Z,32.90
2018-08-03T19:26:13.619Z,32.90
2018-08-03T19:28:41.222Z,32.90
2018-08-03T19:31:08.578Z,32.80
2018-08-03T19:33:36.081Z,32.80
2018-08-03T19:36:03.544Z,32.70
2018-08-03T19:38:31.159Z,32.80
2018-08-03T19:40:58.655Z,32.80
2018-08-03T19:43:26.049Z,32.80
2018-08-03T19:45:53.612Z,32.80
2018-08-03T19:48:21.057Z,32.70
2018-08-03T19:50:48.723Z,32.70
2018-08-03T19:53:16.233Z,32.60
2018-08-03T19:55:43.669Z,32.60
2018-08-03T19:58:13.608Z,32.60
2018-08-03T20:00:41.095Z,32.60
2018-08-03T20:03:08.489Z,32.50
2018-08-03T20:05:35.968Z,32.50
2018-08-03T20:08:03.473Z,32.40
2018-08-03T20:10:30.984Z,32.30
2018-08-03T20:12:58.386Z,32.30
2018-08-03T20:15:25.880Z,32.20
2018-08-03T20:17:53.280Z,32.20
2018-08-03T20:20:20.878Z,32.20
2018-08-03T20:22:48.307Z,32.20
2018-08-03T20:25:15.857Z,32.10
2018-08-03T20:27:43.281Z,32.10
2018-08-03T20:30:10.809Z,32.10
2018-08-03T20:32:38.337Z,32.10
2018-08-03T20:35:05.978Z,32.20
2018-08-03T20:37:33.520Z,32.10
2018-08-03T20:40:00.973Z,32.00
2018-08-03T20:42:28.455Z,32.00
2018-08-03T20:44:56.028Z,31.90
2018-08-03T20:47:23.524Z,31.80
2018-08-03T20:49:50.908Z,31.80
2018-08-03T20:52:18.468Z,31.70
2018-08-03T20:54:45.828Z,31.70
2018-08-03T20:57:13.580Z,31.70
2018-08-03T20:59:41.064Z,31.70
2018-08-03T21:02:08.599Z,31.70
2018-08-03T21:20:00.518Z,31.70
2018-08-03T21:22:31.166Z,31.50
2018-08-03T21:25:02.499Z,31.50
2018-08-03T21:27:30.209Z,31.40
2018-08-03T21:29:57.600Z,31.40
2018-08-03T21:32:25.043Z,31.40
2018-08-03T21:34:52.515Z,31.40
2018-08-03T21:37:20.029Z,31.30
2018-08-03T21:39:47.463Z,31.30
2018-08-03T21:42:14.862Z,31.30
2018-08-03T21:44:42.434Z,31.20
2018-08-03T21:47:09.920Z,31.20
2018-08-03T21:49:37.265Z,31.20
2018-08-03T21:52:04.853Z,31.20
2018-08-03T21:54:32.390Z,31.10
2018-08-03T21:56:59.830Z,31.10
2018-08-03T21:59:27.416Z,31.00
2018-08-03T22:01:54.858Z,31.00
2018-08-03T22:04:22.379Z,30.90
2018-08-03T22:06:49.894Z,30.80
2018-08-03T22:09:17.320Z,30.80
2018-08-03T22:11:44.657Z,30.70
2018-08-03T22:14:12.080Z,30.70
2018-08-03T22:16:39.608Z,30.70
2018-08-03T22:19:07.014Z,30.60
2018-08-03T22:21:34.548Z,30.50
2018-08-03T22:24:02.052Z,30.40
2018-08-03T22:26:29.567Z,30.20
2018-08-03T22:28:57.060Z,30.20
2018-08-03T22:31:24.516Z,30.20
2018-08-03T22:33:52.174Z,30.20
2018-08-03T22:36:19.627Z,30.20
2018-08-03T22:38:47.133Z,30.20
2018-08-03T22:41:16.762Z,30.20
2018-08-03T22:43:44.848Z,30.10
2018-08-03T22:46:12.247Z,29.90
2018-08-03T22:48:39.768Z,29.80
2018-08-03T22:51:07.256Z,29.90
2018-08-03T22:53:34.696Z,29.80
2018-08-03T22:56:02.343Z,29.80
2018-08-03T22:58:29.851Z,29.80
2018-08-03T23:00:57.935Z,29.70
2018-08-03T23:03:25.553Z,29.70
2018-08-03T23:05:52.997Z,29.70
2018-08-03T23:08:20.573Z,29.60
2018-08-03T23:10:48.071Z,29.60
2018-08-03T23:13:15.508Z,29.60
2018-08-03T23:15:42.943Z,29.50
2018-08-03T23:18:10.332Z,29.50
2018-08-03T23:20:37.819Z,29.50
2018-08-03T23:23:05.384Z,29.40
2018-08-03T23:25:32.856Z,29.40
2018-08-03T23:28:00.275Z,29.30
2018-08-03T23:30:27.788Z,29.30
2018-08-03T23:32:55.257Z,29.20
2018-08-03T23:35:22.650Z,29.30
2018-08-03T23:37:50.021Z,29.30
2018-08-03T23:40:17.486Z,29.30
2018-08-03T23:42:45.021Z,29.30
2018-08-03T23:45:12.555Z,29.20
2018-08-03T23:47:39.988Z,29.10
2018-08-03T23:50:11.987Z,29.10
2018-08-03T23:52:39.521Z,29.10
2018-08-03T23:55:07.068Z,29.10
2018-08-03T23:57:34.529Z,29.00
